sensor_id;sensor_type;location;lat;lon;timestamp;temperature;humidity
26703;DHT22;14316;51.074;3.704;2023-08-07T00:00:36;11.90;99.90
26703;DHT22;14316;51.074;3.704;2023-08-07T00:03:02;11.90;99.90
26703;DHT22;14316;51.074;3.704;2023-08-07T00:05:28;11.90;99.90
26703;DHT22;14316;51.074;3.704;2023-08-07T00:07:54;11.90;99.90
26703;DHT22;14316;51.074;3.704;2023-08-07T00:10:20;12.00;99.90
26703;DHT22;14316;51.074;3.704;2023-08-07T00:12:46;12.00;99.90
26703;DHT22;14316;51.074;3.704;2023-08-07T00:15:11;12.10;99.90
26703;DHT22;14316;51.074;3.704;2023-08-07T00:17:37;12.10;99.90
26703;DHT22;14316;51.074;3.704;2023-08-07T00:20:04;12.10;99.90
26703;DHT22;14316;51.074;3.704;2023-08-07T00:22:30;12.10;99.90
26703;DHT22;14316;51.074;3.704;2023-08-07T00:24:56;12.10;99.90
26703;DHT22;14316;51.074;3.704;2023-08-07T00:27:21;12.10;99.90
26703;DHT22;14316;51.074;3.704;2023-08-07T00:29:47;12.10;99.90
26703;DHT22;14316;51.074;3.704;2023-08-07T00:32:13;12.10;99.90
26703;DHT22;14316;51.074;3.704;2023-08-07T00:34:39;11.80;99.90
26703;DHT22;14316;51.074;3.704;2023-08-07T00:37:05;12.00;99.90
26703;DHT22;14316;51.074;3.704;2023-08-07T00:39:31;12.00;99.90
26703;DHT22;14316;51.074;3.704;2023-08-07T00:41:56;11.90;99.90
26703;DHT22;14316;51.074;3.704;2023-08-07T00:44:22;11.90;99.90
26703;DHT22;14316;51.074;3.704;2023-08-07T00:46:49;11.60;99.90
26703;DHT22;14316;51.074;3.704;2023-08-07T00:49:15;11.60;99.90
26703;DHT22;14316;51.074;3.704;2023-08-07T00:51:43;11.60;99.90
26703;DHT22;14316;51.074;3.704;2023-08-07T00:54:11;11.50;99.90
26703;DHT22;14316;51.074;3.704;2023-08-07T00:56:37;11.50;99.90
26703;DHT22;14316;51.074;3.704;2023-08-07T00:59:04;11.50;99.90
26703;DHT22;14316;51.074;3.704;2023-08-07T01:01:30;11.40;99.90
26703;DHT22;14316;51.074;3.704;2023-08-07T01:03:56;11.40;99.90
26703;DHT22;14316;51.074;3.704;2023-08-07T01:06:22;11.40;99.90
26703;DHT22;14316;51.074;3.704;2023-08-07T01:08:47;11.40;99.90
26703;DHT22;14316;51.074;3.704;2023-08-07T01:11:44;11.40;99.90
26703;DHT22;14316;51.074;3.704;2023-08-07T01:17:08;11.40;99.90
26703;DHT22;14316;51.074;3.704;2023-08-07T01:19:35;11.40;99.90
26703;DHT22;14316;51.074;3.704;2023-08-07T01:24:40;11.40;99.90
26703;DHT22;14316;51.074;3.704;2023-08-07T01:30:14;11.40;99.90
26703;DHT22;14316;51.074;3.704;2023-08-07T01:33:22;11.40;99.90
26703;DHT22;14316;51.074;3.704;2023-08-07T01:35:51;11.40;99.90
26703;DHT22;14316;51.074;3.704;2023-08-07T01:38:17;11.40;99.90
26703;DHT22;14316;51.074;3.704;2023-08-07T01:40:44;11.40;99.90
26703;DHT22;14316;51.074;3.704;2023-08-07T01:43:11;11.30;99.90
26703;DHT22;14316;51.074;3.704;2023-08-07T01:45:37;11.30;99.90
26703;DHT22;14316;51.074;3.704;2023-08-07T01:48:03;11.20;99.90
26703;DHT22;14316;51.074;3.704;2023-08-07T01:50:29;11.20;99.90
26703;DHT22;14316;51.074;3.704;2023-08-07T01:52:55;11.20;99.90
26703;DHT22;14316;51.074;3.704;2023-08-07T01:55:22;11.20;99.90
26703;DHT22;14316;51.074;3.704;2023-08-07T01:57:48;11.20;99.90
26703;DHT22;14316;51.074;3.704;2023-08-07T02:00:13;11.20;99.90
26703;DHT22;14316;51.074;3.704;2023-08-07T02:02:39;11.20;99.90
26703;DHT22;14316;51.074;3.704;2023-08-07T02:05:05;11.20;99.90
26703;DHT22;14316;51.074;3.704;2023-08-07T02:07:31;11.20;99.90
26703;DHT22;14316;51.074;3.704;2023-08-07T02:09:57;11.20;99.90
26703;DHT22;14316;51.074;3.704;2023-08-07T02:12:23;11.20;99.90
26703;DHT22;14316;51.074;3.704;2023-08-07T02:14:50;11.20;99.90
26703;DHT22;14316;51.074;3.704;2023-08-07T02:17:16;11.30;99.90
26703;DHT22;14316;51.074;3.704;2023-08-07T02:19:42;11.30;99.90
26703;DHT22;14316;51.074;3.704;2023-08-07T02:22:07;11.20;99.90
26703;DHT22;14316;51.074;3.704;2023-08-07T02:24:33;11.30;99.90
26703;DHT22;14316;51.074;3.704;2023-08-07T02:26:59;11.20;99.90
26703;DHT22;14316;51.074;3.704;2023-08-07T02:29:25;11.30;99.90
26703;DHT22;14316;51.074;3.704;2023-08-07T02:31:51;11.30;99.90
26703;DHT22;14316;51.074;3.704;2023-08-07T02:34:16;11.30;99.90
26703;DHT22;14316;51.074;3.704;2023-08-07T02:36:42;11.40;99.90
26703;DHT22;14316;51.074;3.704;2023-08-07T02:39:08;11.40;99.90
26703;DHT22;14316;51.074;3.704;2023-08-07T02:41:34;11.50;99.90
26703;DHT22;14316;51.074;3.704;2023-08-07T02:44:00;11.50;99.90
26703;DHT22;14316;51.074;3.704;2023-08-07T02:46:26;11.60;99.90
26703;DHT22;14316;51.074;3.704;2023-08-07T02:48:52;11.60;99.90
26703;DHT22;14316;51.074;3.704;2023-08-07T02:51:19;11.60;99.90
26703;DHT22;14316;51.074;3.704;2023-08-07T02:53:45;11.60;99.90
26703;DHT22;14316;51.074;3.704;2023-08-07T02:56:10;11.50;99.90
26703;DHT22;14316;51.074;3.704;2023-08-07T02:58:36;11.50;99.90
26703;DHT22;14316;51.074;3.704;2023-08-07T03:01:05;11.40;99.90
26703;DHT22;14316;51.074;3.704;2023-08-07T03:03:34;11.30;99.90
26703;DHT22;14316;51.074;3.704;2023-08-07T03:06:00;11.20;99.90
26703;DHT22;14316;51.074;3.704;2023-08-07T03:08:26;11.20;99.90
26703;DHT22;14316;51.074;3.704;2023-08-07T03:10:56;11.10;99.90
26703;DHT22;14316;51.074;3.704;2023-08-07T03:13:23;11.00;99.90
26703;DHT22;14316;51.074;3.704;2023-08-07T03:15:49;11.10;99.90
26703;DHT22;14316;51.074;3.704;2023-08-07T03:18:19;11.00;99.90
26703;DHT22;14316;51.074;3.704;2023-08-07T03:20:44;11.00;99.90
26703;DHT22;14316;51.074;3.704;2023-08-07T03:23:11;11.00;99.90
26703;DHT22;14316;51.074;3.704;2023-08-07T03:25:37;11.00;99.90
26703;DHT22;14316;51.074;3.704;2023-08-07T03:28:03;11.00;99.90
26703;DHT22;14316;51.074;3.704;2023-08-07T03:30:29;11.00;99.90
26703;DHT22;14316;51.074;3.704;2023-08-07T03:32:55;11.00;99.90
26703;DHT22;14316;51.074;3.704;2023-08-07T03:35:20;11.00;99.90
26703;DHT22;14316;51.074;3.704;2023-08-07T03:37:47;10.90;99.90
26703;DHT22;14316;51.074;3.704;2023-08-07T03:40:12;11.00;99.90
26703;DHT22;14316;51.074;3.704;2023-08-07T03:42:38;10.90;99.90
26703;DHT22;14316;51.074;3.704;2023-08-07T03:45:04;10.90;99.90
26703;DHT22;14316;51.074;3.704;2023-08-07T03:47:30;10.90;99.90
26703;DHT22;14316;51.074;3.704;2023-08-07T03:49:56;10.90;99.90
26703;DHT22;14316;51.074;3.704;2023-08-07T03:52:22;10.80;99.90
26703;DHT22;14316;51.074;3.704;2023-08-07T03:54:48;10.80;99.90
26703;DHT22;14316;51.074;3.704;2023-08-07T03:57:14;10.80;99.90
26703;DHT22;14316;51.074;3.704;2023-08-07T03:59:39;10.80;99.90
26703;DHT22;14316;51.074;3.704;2023-08-07T04:02:05;10.80;99.90
26703;DHT22;14316;51.074;3.704;2023-08-07T04:04:31;10.90;99.90
26703;DHT22;14316;51.074;3.704;2023-08-07T04:06:57;10.80;99.90
26703;DHT22;14316;51.074;3.704;2023-08-07T04:09:23;10.80;99.90
26703;DHT22;14316;51.074;3.704;2023-08-07T04:11:48;10.80;99.90
26703;DHT22;14316;51.074;3.704;2023-08-07T04:14:14;10.90;99.90
26703;DHT22;14316;51.074;3.704;2023-08-07T04:16:40;10.80;99.90
26703;DHT22;14316;51.074;3.704;2023-08-07T04:19:06;10.80;99.90
26703;DHT22;14316;51.074;3.704;2023-08-07T04:21:33;10.80;99.90
26703;DHT22;14316;51.074;3.704;2023-08-07T04:23:59;10.80;99.90
26703;DHT22;14316;51.074;3.704;2023-08-07T04:26:26;10.80;99.90
26703;DHT22;14316;51.074;3.704;2023-08-07T04:28:51;10.80;99.90
26703;DHT22;14316;51.074;3.704;2023-08-07T04:31:18;10.80;99.90
26703;DHT22;14316;51.074;3.704;2023-08-07T04:33:43;10.80;99.90
26703;DHT22;14316;51.074;3.704;2023-08-07T04:36:09;10.80;99.90
26703;DHT22;14316;51.074;3.704;2023-08-07T04:38:35;10.80;99.90
26703;DHT22;14316;51.074;3.704;2023-08-07T04:41:01;10.80;99.90
26703;DHT22;14316;51.074;3.704;2023-08-07T04:43:28;10.90;99.90
26703;DHT22;14316;51.074;3.704;2023-08-07T04:45:54;10.90;99.90
26703;DHT22;14316;51.074;3.704;2023-08-07T04:48:20;10.90;99.90
26703;DHT22;14316;51.074;3.704;2023-08-07T04:50:46;11.00;99.90
26703;DHT22;14316;51.074;3.704;2023-08-07T04:53:12;11.00;99.90
26703;DHT22;14316;51.074;3.704;2023-08-07T04:55:38;11.00;99.90
26703;DHT22;14316;51.074;3.704;2023-08-07T04:58:04;11.10;99.90
26703;DHT22;14316;51.074;3.704;2023-08-07T05:00:30;11.10;99.90
26703;DHT22;14316;51.074;3.704;2023-08-07T05:02:56;11.10;99.90
26703;DHT22;14316;51.074;3.704;2023-08-07T05:05:21;11.10;99.90
26703;DHT22;14316;51.074;3.704;2023-08-07T05:07:48;11.10;99.90
26703;DHT22;14316;51.074;3.704;2023-08-07T05:10:14;11.10;99.90
26703;DHT22;14316;51.074;3.704;2023-08-07T05:12:39;11.20;99.90
26703;DHT22;14316;51.074;3.704;2023-08-07T05:15:06;11.30;99.90
26703;DHT22;14316;51.074;3.704;2023-08-07T05:17:32;11.30;99.90
26703;DHT22;14316;51.074;3.704;2023-08-07T05:19:58;11.30;99.90
26703;DHT22;14316;51.074;3.704;2023-08-07T05:22:24;11.30;99.90
26703;DHT22;14316;51.074;3.704;2023-08-07T05:24:49;11.40;99.90
26703;DHT22;14316;51.074;3.704;2023-08-07T05:27:16;11.50;99.90
26703;DHT22;14316;51.074;3.704;2023-08-07T05:29:42;11.50;99.90
26703;DHT22;14316;51.074;3.704;2023-08-07T05:32:12;11.50;99.90
26703;DHT22;14316;51.074;3.704;2023-08-07T05:34:38;11.60;99.90
26703;DHT22;14316;51.074;3.704;2023-08-07T05:37:04;11.70;99.90
26703;DHT22;14316;51.074;3.704;2023-08-07T05:39:30;11.70;99.90
26703;DHT22;14316;51.074;3.704;2023-08-07T05:41:56;11.80;99.90
26703;DHT22;14316;51.074;3.704;2023-08-07T05:44:23;11.90;99.90
26703;DHT22;14316;51.074;3.704;2023-08-07T05:46:49;11.90;99.90
26703;DHT22;14316;51.074;3.704;2023-08-07T05:49:16;12.00;99.90
26703;DHT22;14316;51.074;3.704;2023-08-07T05:51:42;12.00;99.90
26703;DHT22;14316;51.074;3.704;2023-08-07T05:54:08;12.10;99.90
26703;DHT22;14316;51.074;3.704;2023-08-07T05:56:33;12.10;99.90
26703;DHT22;14316;51.074;3.704;2023-08-07T05:58:59;12.20;99.90
26703;DHT22;14316;51.074;3.704;2023-08-07T06:01:25;12.30;99.90
26703;DHT22;14316;51.074;3.704;2023-08-07T06:03:57;12.30;99.90
26703;DHT22;14316;51.074;3.704;2023-08-07T06:06:22;12.40;99.90
26703;DHT22;14316;51.074;3.704;2023-08-07T06:08:49;12.40;99.90
26703;DHT22;14316;51.074;3.704;2023-08-07T06:11:14;12.50;99.90
26703;DHT22;14316;51.074;3.704;2023-08-07T06:13:41;12.60;99.90
26703;DHT22;14316;51.074;3.704;2023-08-07T06:16:07;12.70;99.90
26703;DHT22;14316;51.074;3.704;2023-08-07T06:18:33;12.80;99.90
26703;DHT22;14316;51.074;3.704;2023-08-07T06:20:59;12.80;99.90
26703;DHT22;14316;51.074;3.704;2023-08-07T06:23:25;13.00;99.90
26703;DHT22;14316;51.074;3.704;2023-08-07T06:25:51;13.00;99.90
26703;DHT22;14316;51.074;3.704;2023-08-07T06:28:17;13.10;99.90
26703;DHT22;14316;51.074;3.704;2023-08-07T06:30:42;13.20;99.90
26703;DHT22;14316;51.074;3.704;2023-08-07T06:33:08;13.30;99.90
26703;DHT22;14316;51.074;3.704;2023-08-07T06:35:40;13.30;99.90
26703;DHT22;14316;51.074;3.704;2023-08-07T06:38:08;13.40;99.90
26703;DHT22;14316;51.074;3.704;2023-08-07T06:40:35;13.60;99.90
26703;DHT22;14316;51.074;3.704;2023-08-07T06:43:00;13.70;99.90
26703;DHT22;14316;51.074;3.704;2023-08-07T06:45:26;13.80;99.90
26703;DHT22;14316;51.074;3.704;2023-08-07T06:47:52;13.90;99.90
26703;DHT22;14316;51.074;3.704;2023-08-07T06:50:17;14.00;99.90
26703;DHT22;14316;51.074;3.704;2023-08-07T06:52:43;14.10;99.90
26703;DHT22;14316;51.074;3.704;2023-08-07T06:55:09;14.20;99.90
26703;DHT22;14316;51.074;3.704;2023-08-07T06:57:35;14.20;99.90
26703;DHT22;14316;51.074;3.704;2023-08-07T07:00:00;14.30;99.90
26703;DHT22;14316;51.074;3.704;2023-08-07T07:02:26;14.50;99.90
26703;DHT22;14316;51.074;3.704;2023-08-07T07:04:52;14.60;99.90
26703;DHT22;14316;51.074;3.704;2023-08-07T07:07:17;14.70;99.90
26703;DHT22;14316;51.074;3.704;2023-08-07T07:09:43;14.80;99.90
26703;DHT22;14316;51.074;3.704;2023-08-07T07:12:09;14.80;99.90
26703;DHT22;14316;51.074;3.704;2023-08-07T07:14:34;14.90;99.90
26703;DHT22;14316;51.074;3.704;2023-08-07T07:17:00;15.00;99.90
26703;DHT22;14316;51.074;3.704;2023-08-07T07:19:26;15.10;99.90
26703;DHT22;14316;51.074;3.704;2023-08-07T07:21:51;15.20;99.90
26703;DHT22;14316;51.074;3.704;2023-08-07T07:24:17;15.20;99.90
26703;DHT22;14316;51.074;3.704;2023-08-07T07:26:43;15.30;99.90
26703;DHT22;14316;51.074;3.704;2023-08-07T07:29:09;15.30;99.90
26703;DHT22;14316;51.074;3.704;2023-08-07T07:31:35;15.40;99.90
26703;DHT22;14316;51.074;3.704;2023-08-07T07:34:00;15.40;99.90
26703;DHT22;14316;51.074;3.704;2023-08-07T07:36:26;15.60;99.90
26703;DHT22;14316;51.074;3.704;2023-08-07T07:38:52;15.80;99.90
26703;DHT22;14316;51.074;3.704;2023-08-07T07:41:17;15.90;99.90
26703;DHT22;14316;51.074;3.704;2023-08-07T07:43:44;16.00;99.90
26703;DHT22;14316;51.074;3.704;2023-08-07T07:46:10;16.10;99.90
26703;DHT22;14316;51.074;3.704;2023-08-07T07:48:35;16.20;99.90
26703;DHT22;14316;51.074;3.704;2023-08-07T07:51:04;16.40;99.90
26703;DHT22;14316;51.074;3.704;2023-08-07T07:53:30;16.60;99.90
26703;DHT22;14316;51.074;3.704;2023-08-07T07:55:56;16.60;99.90
26703;DHT22;14316;51.074;3.704;2023-08-07T07:58:22;16.60;99.90
26703;DHT22;14316;51.074;3.704;2023-08-07T08:00:48;16.60;99.90
26703;DHT22;14316;51.074;3.704;2023-08-07T08:03:14;16.60;99.90
26703;DHT22;14316;51.074;3.704;2023-08-07T08:05:39;16.70;99.90
26703;DHT22;14316;51.074;3.704;2023-08-07T08:08:11;16.70;99.90
26703;DHT22;14316;51.074;3.704;2023-08-07T08:10:36;16.80;99.90
26703;DHT22;14316;51.074;3.704;2023-08-07T08:13:02;16.80;99.90
26703;DHT22;14316;51.074;3.704;2023-08-07T08:15:30;16.80;99.90
26703;DHT22;14316;51.074;3.704;2023-08-07T08:17:56;16.80;99.90
26703;DHT22;14316;51.074;3.704;2023-08-07T08:20:22;16.80;99.90
26703;DHT22;14316;51.074;3.704;2023-08-07T08:22:48;16.80;99.90
26703;DHT22;14316;51.074;3.704;2023-08-07T08:25:13;16.90;99.90
26703;DHT22;14316;51.074;3.704;2023-08-07T08:27:39;17.00;99.90
26703;DHT22;14316;51.074;3.704;2023-08-07T08:30:06;17.10;99.90
26703;DHT22;14316;51.074;3.704;2023-08-07T08:32:32;17.30;99.90
26703;DHT22;14316;51.074;3.704;2023-08-07T08:34:58;17.30;99.90
26703;DHT22;14316;51.074;3.704;2023-08-07T08:37:24;17.30;99.90
26703;DHT22;14316;51.074;3.704;2023-08-07T08:39:49;17.40;99.90
26703;DHT22;14316;51.074;3.704;2023-08-07T08:42:15;17.50;99.90
26703;DHT22;14316;51.074;3.704;2023-08-07T08:44:48;17.60;99.90
26703;DHT22;14316;51.074;3.704;2023-08-07T08:47:16;17.90;99.90
26703;DHT22;14316;51.074;3.704;2023-08-07T08:49:47;18.10;99.90
26703;DHT22;14316;51.074;3.704;2023-08-07T08:52:13;18.00;99.90
26703;DHT22;14316;51.074;3.704;2023-08-07T08:54:43;18.00;99.90
26703;DHT22;14316;51.074;3.704;2023-08-07T08:57:09;18.10;99.90
26703;DHT22;14316;51.074;3.704;2023-08-07T08:59:37;18.40;99.90
26703;DHT22;14316;51.074;3.704;2023-08-07T09:02:04;18.50;99.90
26703;DHT22;14316;51.074;3.704;2023-08-07T09:04:29;18.30;99.90
26703;DHT22;14316;51.074;3.704;2023-08-07T09:06:55;18.20;99.90
26703;DHT22;14316;51.074;3.704;2023-08-07T09:09:21;18.30;99.90
26703;DHT22;14316;51.074;3.704;2023-08-07T09:11:48;18.60;99.90
26703;DHT22;14316;51.074;3.704;2023-08-07T09:14:19;19.00;99.90
26703;DHT22;14316;51.074;3.704;2023-08-07T09:16:47;19.40;99.90
26703;DHT22;14316;51.074;3.704;2023-08-07T09:19:13;19.50;99.90
26703;DHT22;14316;51.074;3.704;2023-08-07T09:21:39;19.70;99.90
26703;DHT22;14316;51.074;3.704;2023-08-07T09:24:05;19.90;99.90
26703;DHT22;14316;51.074;3.704;2023-08-07T09:26:32;20.10;99.90
26703;DHT22;14316;51.074;3.704;2023-08-07T09:29:02;20.40;99.90
26703;DHT22;14316;51.074;3.704;2023-08-07T09:31:28;20.30;99.90
26703;DHT22;14316;51.074;3.704;2023-08-07T09:34:02;20.20;99.90
26703;DHT22;14316;51.074;3.704;2023-08-07T09:36:31;20.10;99.90
26703;DHT22;14316;51.074;3.704;2023-08-07T09:39:01;19.90;99.90
26703;DHT22;14316;51.074;3.704;2023-08-07T09:41:29;20.00;99.90
26703;DHT22;14316;51.074;3.704;2023-08-07T09:43:55;20.00;99.90
26703;DHT22;14316;51.074;3.704;2023-08-07T09:46:21;19.60;99.90
26703;DHT22;14316;51.074;3.704;2023-08-07T09:48:47;19.40;99.90
26703;DHT22;14316;51.074;3.704;2023-08-07T09:51:13;19.40;99.90
26703;DHT22;14316;51.074;3.704;2023-08-07T09:53:38;19.30;99.90
26703;DHT22;14316;51.074;3.704;2023-08-07T09:56:06;19.40;99.90
26703;DHT22;14316;51.074;3.704;2023-08-07T09:58:33;20.00;99.90
26703;DHT22;14316;51.074;3.704;2023-08-07T10:01:03;20.30;99.90
26703;DHT22;14316;51.074;3.704;2023-08-07T10:03:29;20.40;99.90
26703;DHT22;14316;51.074;3.704;2023-08-07T10:05:55;19.90;99.90
26703;DHT22;14316;51.074;3.704;2023-08-07T10:08:22;19.90;99.90
26703;DHT22;14316;51.074;3.704;2023-08-07T10:10:48;20.20;99.90
26703;DHT22;14316;51.074;3.704;2023-08-07T10:13:14;19.90;99.90
26703;DHT22;14316;51.074;3.704;2023-08-07T10:15:40;20.20;99.90
26703;DHT22;14316;51.074;3.704;2023-08-07T10:18:08;20.50;99.90
26703;DHT22;14316;51.074;3.704;2023-08-07T10:20:34;20.70;99.90
26703;DHT22;14316;51.074;3.704;2023-08-07T10:23:07;20.90;99.90
26703;DHT22;14316;51.074;3.704;2023-08-07T10:25:34;20.90;99.90
26703;DHT22;14316;51.074;3.704;2023-08-07T10:28:02;20.90;99.90
26703;DHT22;14316;51.074;3.704;2023-08-07T10:30:29;20.80;99.90
26703;DHT22;14316;51.074;3.704;2023-08-07T10:32:57;21.00;99.90
26703;DHT22;14316;51.074;3.704;2023-08-07T10:35:31;21.20;99.90
26703;DHT22;14316;51.074;3.704;2023-08-07T10:38:08;21.60;99.90
26703;DHT22;14316;51.074;3.704;2023-08-07T10:40:34;21.70;99.90
26703;DHT22;14316;51.074;3.704;2023-08-07T10:43:19;21.90;99.90
26703;DHT22;14316;51.074;3.704;2023-08-07T10:45:46;22.20;99.90
26703;DHT22;14316;51.074;3.704;2023-08-07T10:48:12;21.90;99.90
26703;DHT22;14316;51.074;3.704;2023-08-07T10:53:30;21.80;99.90
26703;DHT22;14316;51.074;3.704;2023-08-07T10:55:56;22.20;99.90
26703;DHT22;14316;51.074;3.704;2023-08-07T10:58:31;22.30;99.90
26703;DHT22;14316;51.074;3.704;2023-08-07T11:01:26;22.10;99.90
26703;DHT22;14316;51.074;3.704;2023-08-07T11:03:58;21.00;99.90
26703;DHT22;14316;51.074;3.704;2023-08-07T11:06:24;20.50;99.90
26703;DHT22;14316;51.074;3.704;2023-08-07T11:08:52;20.90;99.90
26703;DHT22;14316;51.074;3.704;2023-08-07T11:11:18;21.50;99.90
26703;DHT22;14316;51.074;3.704;2023-08-07T11:13:44;21.70;99.90
26703;DHT22;14316;51.074;3.704;2023-08-07T11:16:11;21.90;99.90
26703;DHT22;14316;51.074;3.704;2023-08-07T11:18:37;21.50;99.90
26703;DHT22;14316;51.074;3.704;2023-08-07T11:21:07;21.40;99.90
26703;DHT22;14316;51.074;3.704;2023-08-07T11:23:33;21.70;99.90
26703;DHT22;14316;51.074;3.704;2023-08-07T11:25:58;22.40;99.90
26703;DHT22;14316;51.074;3.704;2023-08-07T11:28:25;22.20;99.90
26703;DHT22;14316;51.074;3.704;2023-08-07T11:30:52;21.70;99.90
26703;DHT22;14316;51.074;3.704;2023-08-07T11:33:19;21.90;99.90
26703;DHT22;14316;51.074;3.704;2023-08-07T11:35:48;22.70;99.90
26703;DHT22;14316;51.074;3.704;2023-08-07T11:38:38;23.60;99.90
26703;DHT22;14316;51.074;3.704;2023-08-07T11:41:05;24.50;99.90
26703;DHT22;14316;51.074;3.704;2023-08-07T11:43:32;24.30;99.90
26703;DHT22;14316;51.074;3.704;2023-08-07T11:46:00;23.50;99.90
26703;DHT22;14316;51.074;3.704;2023-08-07T11:48:28;23.50;99.90
26703;DHT22;14316;51.074;3.704;2023-08-07T11:50:54;24.10;99.90
26703;DHT22;14316;51.074;3.704;2023-08-07T11:53:22;24.60;99.90
26703;DHT22;14316;51.074;3.704;2023-08-07T11:55:52;24.60;99.90
26703;DHT22;14316;51.074;3.704;2023-08-07T11:58:20;25.50;99.90
26703;DHT22;14316;51.074;3.704;2023-08-07T12:00:46;25.80;99.90
26703;DHT22;14316;51.074;3.704;2023-08-07T12:03:31;25.60;99.90
26703;DHT22;14316;51.074;3.704;2023-08-07T12:06:02;25.30;99.90
26703;DHT22;14316;51.074;3.704;2023-08-07T12:08:34;24.90;99.90
26703;DHT22;14316;51.074;3.704;2023-08-07T12:11:08;25.50;99.90
26703;DHT22;14316;51.074;3.704;2023-08-07T12:13:43;24.50;99.90
26703;DHT22;14316;51.074;3.704;2023-08-07T12:16:10;24.10;99.90
26703;DHT22;14316;51.074;3.704;2023-08-07T12:18:49;23.90;99.90
26703;DHT22;14316;51.074;3.704;2023-08-07T12:21:16;25.40;99.90
26703;DHT22;14316;51.074;3.704;2023-08-07T12:23:44;25.50;99.90
26703;DHT22;14316;51.074;3.704;2023-08-07T12:26:10;25.70;99.90
26703;DHT22;14316;51.074;3.704;2023-08-07T12:28:36;25.10;99.90
26703;DHT22;14316;51.074;3.704;2023-08-07T12:31:04;25.80;99.90
26703;DHT22;14316;51.074;3.704;2023-08-07T12:33:30;27.80;99.90
26703;DHT22;14316;51.074;3.704;2023-08-07T12:35:57;28.80;99.90
26703;DHT22;14316;51.074;3.704;2023-08-07T12:38:23;27.30;99.90
26703;DHT22;14316;51.074;3.704;2023-08-07T12:40:51;26.40;99.90
26703;DHT22;14316;51.074;3.704;2023-08-07T12:43:16;27.60;99.90
26703;DHT22;14316;51.074;3.704;2023-08-07T12:45:42;29.10;99.90
26703;DHT22;14316;51.074;3.704;2023-08-07T12:48:08;27.70;99.90
26703;DHT22;14316;51.074;3.704;2023-08-07T12:50:34;25.90;99.90
26703;DHT22;14316;51.074;3.704;2023-08-07T12:53:00;24.80;99.90
26703;DHT22;14316;51.074;3.704;2023-08-07T12:55:26;24.90;99.90
26703;DHT22;14316;51.074;3.704;2023-08-07T12:57:54;25.40;99.90
26703;DHT22;14316;51.074;3.704;2023-08-07T13:00:20;27.60;99.90
26703;DHT22;14316;51.074;3.704;2023-08-07T13:02:48;29.60;99.90
26703;DHT22;14316;51.074;3.704;2023-08-07T13:05:14;31.10;96.90
26703;DHT22;14316;51.074;3.704;2023-08-07T13:07:42;30.90;93.10
26703;DHT22;14316;51.074;3.704;2023-08-07T13:10:10;29.80;92.50
26703;DHT22;14316;51.074;3.704;2023-08-07T13:12:39;29.50;93.70
26703;DHT22;14316;51.074;3.704;2023-08-07T13:15:07;30.50;92.90
26703;DHT22;14316;51.074;3.704;2023-08-07T13:17:36;30.60;91.30
26703;DHT22;14316;51.074;3.704;2023-08-07T13:20:02;29.30;91.90
26703;DHT22;14316;51.074;3.704;2023-08-07T13:22:37;29.20;92.30
26703;DHT22;14316;51.074;3.704;2023-08-07T13:25:03;29.10;94.50
26703;DHT22;14316;51.074;3.704;2023-08-07T13:27:30;29.20;94.20
26703;DHT22;14316;51.074;3.704;2023-08-07T13:29:58;28.60;93.60
26703;DHT22;14316;51.074;3.704;2023-08-07T13:32:25;28.20;93.10
26703;DHT22;14316;51.074;3.704;2023-08-07T13:34:51;28.00;92.40
26703;DHT22;14316;51.074;3.704;2023-08-07T13:37:17;28.80;92.00
26703;DHT22;14316;51.074;3.704;2023-08-07T13:39:43;29.80;91.20
26703;DHT22;14316;51.074;3.704;2023-08-07T13:42:08;30.80;88.50
26703;DHT22;14316;51.074;3.704;2023-08-07T13:44:36;30.60;88.30
26703;DHT22;14316;51.074;3.704;2023-08-07T13:47:02;29.60;87.20
26703;DHT22;14316;51.074;3.704;2023-08-07T13:49:29;28.40;89.10
26703;DHT22;14316;51.074;3.704;2023-08-07T13:51:55;27.90;90.60
26703;DHT22;14316;51.074;3.704;2023-08-07T13:54:21;28.70;90.50
26703;DHT22;14316;51.074;3.704;2023-08-07T13:56:47;29.50;89.00
26703;DHT22;14316;51.074;3.704;2023-08-07T13:59:12;30.50;88.40
26703;DHT22;14316;51.074;3.704;2023-08-07T14:01:38;31.30;86.50
26703;DHT22;14316;51.074;3.704;2023-08-07T14:04:05;31.50;85.30
26703;DHT22;14316;51.074;3.704;2023-08-07T14:06:31;31.30;83.60
26703;DHT22;14316;51.074;3.704;2023-08-07T14:08:57;30.50;84.70
26703;DHT22;14316;51.074;3.704;2023-08-07T14:11:23;29.40;82.80
26703;DHT22;14316;51.074;3.704;2023-08-07T14:13:53;29.30;82.70
26703;DHT22;14316;51.074;3.704;2023-08-07T14:16:18;29.50;82.00
26703;DHT22;14316;51.074;3.704;2023-08-07T14:18:44;27.70;85.50
26703;DHT22;14316;51.074;3.704;2023-08-07T14:21:10;26.60;88.80
26703;DHT22;14316;51.074;3.704;2023-08-07T14:23:36;26.10;90.70
26703;DHT22;14316;51.074;3.704;2023-08-07T14:26:01;26.50;92.00
26703;DHT22;14316;51.074;3.704;2023-08-07T14:28:27;27.40;89.40
26703;DHT22;14316;51.074;3.704;2023-08-07T14:30:56;28.40;89.10
26703;DHT22;14316;51.074;3.704;2023-08-07T14:33:22;29.80;90.20
26703;DHT22;14316;51.074;3.704;2023-08-07T14:35:48;29.10;86.50
26703;DHT22;14316;51.074;3.704;2023-08-07T14:38:13;28.20;91.40
26703;DHT22;14316;51.074;3.704;2023-08-07T14:40:39;27.60;91.80
26703;DHT22;14316;51.074;3.704;2023-08-07T14:43:06;27.50;92.20
26703;DHT22;14316;51.074;3.704;2023-08-07T14:45:32;27.20;91.20
26703;DHT22;14316;51.074;3.704;2023-08-07T14:47:58;27.00;92.60
26703;DHT22;14316;51.074;3.704;2023-08-07T14:50:23;27.10;93.20
26703;DHT22;14316;51.074;3.704;2023-08-07T14:52:49;27.30;93.60
26703;DHT22;14316;51.074;3.704;2023-08-07T14:55:15;26.90;92.40
26703;DHT22;14316;51.074;3.704;2023-08-07T14:57:41;27.20;91.90
26703;DHT22;14316;51.074;3.704;2023-08-07T15:00:07;28.00;91.80
26703;DHT22;14316;51.074;3.704;2023-08-07T15:02:34;29.30;90.90
26703;DHT22;14316;51.074;3.704;2023-08-07T15:05:00;29.90;89.20
26703;DHT22;14316;51.074;3.704;2023-08-07T15:07:25;31.00;88.40
26703;DHT22;14316;51.074;3.704;2023-08-07T15:09:51;32.60;85.50
26703;DHT22;14316;51.074;3.704;2023-08-07T15:12:17;32.20;79.50
26703;DHT22;14316;51.074;3.704;2023-08-07T15:14:43;32.10;78.00
26703;DHT22;14316;51.074;3.704;2023-08-07T15:17:08;31.60;77.80
26703;DHT22;14316;51.074;3.704;2023-08-07T15:19:34;30.00;80.50
26703;DHT22;14316;51.074;3.704;2023-08-07T15:22:00;29.00;81.90
26703;DHT22;14316;51.074;3.704;2023-08-07T15:24:26;28.10;84.10
26703;DHT22;14316;51.074;3.704;2023-08-07T15:26:52;27.40;86.30
26703;DHT22;14316;51.074;3.704;2023-08-07T15:29:17;27.60;91.00
26703;DHT22;14316;51.074;3.704;2023-08-07T15:31:43;27.30;87.00
26703;DHT22;14316;51.074;3.704;2023-08-07T15:34:08;26.60;87.40
26703;DHT22;14316;51.074;3.704;2023-08-07T15:36:34;28.10;86.30
26703;DHT22;14316;51.074;3.704;2023-08-07T15:39:00;28.90;84.40